sensor_id;sensor_type;location;lat;lon;timestamp;temperature;humidity
34766;DHT22;20984;43.508;1.504;2023-11-18T00:00:16;7.20;99.90
34766;DHT22;20984;43.508;1.504;2023-11-18T00:02:42;7.20;99.90
34766;DHT22;20984;43.508;1.504;2023-11-18T00:05:09;7.20;99.90
34766;DHT22;20984;43.508;1.504;2023-11-18T00:07:35;7.20;99.90
34766;DHT22;20984;43.508;1.504;2023-11-18T00:10:00;7.20;99.90
34766;DHT22;20984;43.508;1.504;2023-11-18T00:12:26;7.20;99.90
34766;DHT22;20984;43.508;1.504;2023-11-18T00:14:51;7.20;99.90
34766;DHT22;20984;43.508;1.504;2023-11-18T00:17:17;7.20;99.90
34766;DHT22;20984;43.508;1.504;2023-11-18T00:19:43;7.20;99.90
34766;DHT22;20984;43.508;1.504;2023-11-18T00:22:10;7.20;99.90
34766;DHT22;20984;43.508;1.504;2023-11-18T00:24:37;7.20;99.90
34766;DHT22;20984;43.508;1.504;2023-11-18T00:27:04;7.20;99.90
34766;DHT22;20984;43.508;1.504;2023-11-18T00:29:32;7.20;99.90
34766;DHT22;20984;43.508;1.504;2023-11-18T00:31:59;7.20;99.90
34766;DHT22;20984;43.508;1.504;2023-11-18T00:34:24;7.20;99.90
34766;DHT22;20984;43.508;1.504;2023-11-18T00:36:51;7.20;99.90
34766;DHT22;20984;43.508;1.504;2023-11-18T00:39:17;7.10;99.90
34766;DHT22;20984;43.508;1.504;2023-11-18T00:41:43;7.10;99.90
34766;DHT22;20984;43.508;1.504;2023-11-18T00:44:09;7.10;99.90
34766;DHT22;20984;43.508;1.504;2023-11-18T00:46:35;7.10;99.90
34766;DHT22;20984;43.508;1.504;2023-11-18T00:49:02;7.10;99.90
34766;DHT22;20984;43.508;1.504;2023-11-18T00:51:27;7.20;99.90
34766;DHT22;20984;43.508;1.504;2023-11-18T00:53:54;7.20;99.90
34766;DHT22;20984;43.508;1.504;2023-11-18T00:56:20;7.30;99.90
34766;DHT22;20984;43.508;1.504;2023-11-18T00:58:50;7.30;99.90
34766;DHT22;20984;43.508;1.504;2023-11-18T01:01:16;7.30;99.90
34766;DHT22;20984;43.508;1.504;2023-11-18T01:03:45;7.40;99.90
34766;DHT22;20984;43.508;1.504;2023-11-18T01:06:11;7.40;99.90
34766;DHT22;20984;43.508;1.504;2023-11-18T01:08:37;7.40;99.90
34766;DHT22;20984;43.508;1.504;2023-11-18T01:11:03;7.50;99.90
34766;DHT22;20984;43.508;1.504;2023-11-18T01:13:33;7.50;99.90
34766;DHT22;20984;43.508;1.504;2023-11-18T01:15:59;7.50;99.90
34766;DHT22;20984;43.508;1.504;2023-11-18T01:18:24;7.50;99.90
34766;DHT22;20984;43.508;1.504;2023-11-18T01:20:50;7.50;99.90
34766;DHT22;20984;43.508;1.504;2023-11-18T01:23:16;7.60;99.90
34766;DHT22;20984;43.508;1.504;2023-11-18T01:25:42;7.60;99.90
34766;DHT22;20984;43.508;1.504;2023-11-18T01:28:07;7.60;99.90
34766;DHT22;20984;43.508;1.504;2023-11-18T01:30:34;7.60;99.90
34766;DHT22;20984;43.508;1.504;2023-11-18T01:33:00;7.70;99.90
34766;DHT22;20984;43.508;1.504;2023-11-18T01:35:29;7.70;99.90
34766;DHT22;20984;43.508;1.504;2023-11-18T01:37:54;7.70;99.90
34766;DHT22;20984;43.508;1.504;2023-11-18T01:40:20;7.60;99.90
34766;DHT22;20984;43.508;1.504;2023-11-18T01:42:46;7.50;99.90
34766;DHT22;20984;43.508;1.504;2023-11-18T01:45:15;7.50;99.90
34766;DHT22;20984;43.508;1.504;2023-11-18T01:47:44;7.40;99.90
34766;DHT22;20984;43.508;1.504;2023-11-18T01:50:12;7.30;99.90
34766;DHT22;20984;43.508;1.504;2023-11-18T01:52:40;7.20;99.90
34766;DHT22;20984;43.508;1.504;2023-11-18T01:55:06;7.10;99.90
34766;DHT22;20984;43.508;1.504;2023-11-18T01:57:35;7.20;99.90
34766;DHT22;20984;43.508;1.504;2023-11-18T02:00:02;7.10;99.90
34766;DHT22;20984;43.508;1.504;2023-11-18T02:02:32;7.10;99.90
34766;DHT22;20984;43.508;1.504;2023-11-18T02:04:59;7.00;99.90
34766;DHT22;20984;43.508;1.504;2023-11-18T02:07:27;7.00;99.90
34766;DHT22;20984;43.508;1.504;2023-11-18T02:09:54;7.00;99.90
34766;DHT22;20984;43.508;1.504;2023-11-18T02:12:31;7.00;99.90
34766;DHT22;20984;43.508;1.504;2023-11-18T02:15:00;7.00;99.90
34766;DHT22;20984;43.508;1.504;2023-11-18T02:17:28;6.90;99.90
34766;DHT22;20984;43.508;1.504;2023-11-18T02:19:56;6.90;99.90
34766;DHT22;20984;43.508;1.504;2023-11-18T02:22:23;6.90;99.90
34766;DHT22;20984;43.508;1.504;2023-11-18T02:24:49;6.90;99.90
34766;DHT22;20984;43.508;1.504;2023-11-18T02:27:15;6.80;99.90
34766;DHT22;20984;43.508;1.504;2023-11-18T02:29:44;6.80;99.90
34766;DHT22;20984;43.508;1.504;2023-11-18T02:32:29;6.80;99.90
34766;DHT22;20984;43.508;1.504;2023-11-18T02:35:23;6.80;99.90
34766;DHT22;20984;43.508;1.504;2023-11-18T02:37:53;6.80;99.90
34766;DHT22;20984;43.508;1.504;2023-11-18T02:40:27;6.80;99.90
34766;DHT22;20984;43.508;1.504;2023-11-18T02:42:57;6.70;99.90
34766;DHT22;20984;43.508;1.504;2023-11-18T02:45:24;6.80;99.90
34766;DHT22;20984;43.508;1.504;2023-11-18T02:47:51;6.80;99.90
34766;DHT22;20984;43.508;1.504;2023-11-18T02:50:17;6.90;99.90
34766;DHT22;20984;43.508;1.504;2023-11-18T02:52:44;6.90;99.90
34766;DHT22;20984;43.508;1.504;2023-11-18T02:55:10;7.00;99.90
34766;DHT22;20984;43.508;1.504;2023-11-18T02:57:37;7.00;99.90
34766;DHT22;20984;43.508;1.504;2023-11-18T03:00:04;7.00;99.90
34766;DHT22;20984;43.508;1.504;2023-11-18T03:02:30;7.10;99.90
34766;DHT22;20984;43.508;1.504;2023-11-18T03:05:00;7.00;99.90
34766;DHT22;20984;43.508;1.504;2023-11-18T03:07:26;7.00;99.90
34766;DHT22;20984;43.508;1.504;2023-11-18T03:09:54;7.10;99.90
34766;DHT22;20984;43.508;1.504;2023-11-18T03:12:22;7.10;99.90
34766;DHT22;20984;43.508;1.504;2023-11-18T03:14:48;7.10;99.90
34766;DHT22;20984;43.508;1.504;2023-11-18T03:17:13;7.10;99.90
34766;DHT22;20984;43.508;1.504;2023-11-18T03:19:39;7.00;99.90
34766;DHT22;20984;43.508;1.504;2023-11-18T03:22:05;7.00;99.90
34766;DHT22;20984;43.508;1.504;2023-11-18T03:24:30;7.00;99.90
34766;DHT22;20984;43.508;1.504;2023-11-18T03:26:56;6.90;99.90
34766;DHT22;20984;43.508;1.504;2023-11-18T03:29:22;6.90;99.90
34766;DHT22;20984;43.508;1.504;2023-11-18T03:31:49;6.90;99.90
34766;DHT22;20984;43.508;1.504;2023-11-18T03:34:17;6.90;99.90
34766;DHT22;20984;43.508;1.504;2023-11-18T03:36:45;6.90;99.90
34766;DHT22;20984;43.508;1.504;2023-11-18T03:39:12;6.90;99.90
34766;DHT22;20984;43.508;1.504;2023-11-18T03:41:38;6.90;99.90
34766;DHT22;20984;43.508;1.504;2023-11-18T03:44:04;7.00;99.90
34766;DHT22;20984;43.508;1.504;2023-11-18T03:46:30;7.00;99.90
34766;DHT22;20984;43.508;1.504;2023-11-18T03:49:02;7.00;99.90
34766;DHT22;20984;43.508;1.504;2023-11-18T03:51:28;7.00;99.90
34766;DHT22;20984;43.508;1.504;2023-11-18T03:53:54;6.90;99.90
34766;DHT22;20984;43.508;1.504;2023-11-18T03:56:20;6.90;99.90
34766;DHT22;20984;43.508;1.504;2023-11-18T03:58:45;6.90;99.90
34766;DHT22;20984;43.508;1.504;2023-11-18T04:01:24;6.80;99.90
34766;DHT22;20984;43.508;1.504;2023-11-18T04:03:52;6.80;99.90
34766;DHT22;20984;43.508;1.504;2023-11-18T04:06:17;6.80;99.90
34766;DHT22;20984;43.508;1.504;2023-11-18T04:08:45;6.80;99.90
34766;DHT22;20984;43.508;1.504;2023-11-18T04:11:11;6.80;99.90
34766;DHT22;20984;43.508;1.504;2023-11-18T04:13:38;6.80;99.90
34766;DHT22;20984;43.508;1.504;2023-11-18T04:16:04;6.80;99.90
34766;DHT22;20984;43.508;1.504;2023-11-18T04:18:31;6.90;99.90
34766;DHT22;20984;43.508;1.504;2023-11-18T04:20:57;6.90;99.90
34766;DHT22;20984;43.508;1.504;2023-11-18T04:23:23;6.90;99.90
34766;DHT22;20984;43.508;1.504;2023-11-18T04:25:49;6.90;99.90
34766;DHT22;20984;43.508;1.504;2023-11-18T04:28:15;6.90;99.90
34766;DHT22;20984;43.508;1.504;2023-11-18T04:30:41;6.80;99.90
34766;DHT22;20984;43.508;1.504;2023-11-18T04:33:06;6.80;99.90
34766;DHT22;20984;43.508;1.504;2023-11-18T04:35:32;6.80;99.90
34766;DHT22;20984;43.508;1.504;2023-11-18T04:37:59;6.80;99.90
34766;DHT22;20984;43.508;1.504;2023-11-18T04:40:25;6.70;99.90
34766;DHT22;20984;43.508;1.504;2023-11-18T04:42:51;6.70;99.90
34766;DHT22;20984;43.508;1.504;2023-11-18T04:45:16;6.70;99.90
34766;DHT22;20984;43.508;1.504;2023-11-18T04:47:42;6.60;99.90
34766;DHT22;20984;43.508;1.504;2023-11-18T04:50:10;6.60;99.90
34766;DHT22;20984;43.508;1.504;2023-11-18T04:52:35;6.60;99.90
34766;DHT22;20984;43.508;1.504;2023-11-18T04:55:03;6.50;99.90
34766;DHT22;20984;43.508;1.504;2023-11-18T04:57:28;6.50;99.90
34766;DHT22;20984;43.508;1.504;2023-11-18T04:59:54;6.50;99.90
34766;DHT22;20984;43.508;1.504;2023-11-18T05:02:20;6.50;99.90
34766;DHT22;20984;43.508;1.504;2023-11-18T05:04:45;6.50;99.90
34766;DHT22;20984;43.508;1.504;2023-11-18T05:07:11;6.60;99.90
34766;DHT22;20984;43.508;1.504;2023-11-18T05:09:37;6.60;99.90
34766;DHT22;20984;43.508;1.504;2023-11-18T05:12:03;6.60;99.90
34766;DHT22;20984;43.508;1.504;2023-11-18T05:14:28;6.60;99.90
34766;DHT22;20984;43.508;1.504;2023-11-18T05:16:54;6.60;99.90
34766;DHT22;20984;43.508;1.504;2023-11-18T05:19:20;6.60;99.90
34766;DHT22;20984;43.508;1.504;2023-11-18T05:21:46;6.60;99.90
34766;DHT22;20984;43.508;1.504;2023-11-18T05:24:15;6.70;99.90
34766;DHT22;20984;43.508;1.504;2023-11-18T05:26:40;6.70;99.90
34766;DHT22;20984;43.508;1.504;2023-11-18T05:29:06;6.70;99.90
34766;DHT22;20984;43.508;1.504;2023-11-18T05:31:32;6.70;99.90
34766;DHT22;20984;43.508;1.504;2023-11-18T05:33:58;6.70;99.90
34766;DHT22;20984;43.508;1.504;2023-11-18T05:36:24;6.80;99.90
34766;DHT22;20984;43.508;1.504;2023-11-18T05:38:53;6.80;99.90
34766;DHT22;20984;43.508;1.504;2023-11-18T05:41:20;6.90;99.90
34766;DHT22;20984;43.508;1.504;2023-11-18T05:43:55;6.90;99.90
34766;DHT22;20984;43.508;1.504;2023-11-18T05:46:25;6.90;99.90
34766;DHT22;20984;43.508;1.504;2023-11-18T05:48:55;7.00;99.90
34766;DHT22;20984;43.508;1.504;2023-11-18T05:51:24;7.00;99.90
34766;DHT22;20984;43.508;1.504;2023-11-18T05:53:50;7.00;99.90
34766;DHT22;20984;43.508;1.504;2023-11-18T05:56:17;6.90;99.90
34766;DHT22;20984;43.508;1.504;2023-11-18T05:58:44;6.90;99.90
34766;DHT22;20984;43.508;1.504;2023-11-18T06:01:10;6.90;99.90
34766;DHT22;20984;43.508;1.504;2023-11-18T06:03:37;6.90;99.90
34766;DHT22;20984;43.508;1.504;2023-11-18T06:06:15;6.80;99.90
34766;DHT22;20984;43.508;1.504;2023-11-18T06:08:41;6.80;99.90
34766;DHT22;20984;43.508;1.504;2023-11-18T06:11:11;6.70;99.90
34766;DHT22;20984;43.508;1.504;2023-11-18T06:13:49;6.60;99.90
34766;DHT22;20984;43.508;1.504;2023-11-18T06:16:23;6.60;99.90
34766;DHT22;20984;43.508;1.504;2023-11-18T06:18:56;6.50;99.90
34766;DHT22;20984;43.508;1.504;2023-11-18T06:21:25;6.40;99.90
34766;DHT22;20984;43.508;1.504;2023-11-18T06:23:55;6.40;99.90
34766;DHT22;20984;43.508;1.504;2023-11-18T06:26:21;6.40;99.90
34766;DHT22;20984;43.508;1.504;2023-11-18T06:28:48;6.40;99.90
34766;DHT22;20984;43.508;1.504;2023-11-18T06:31:16;6.30;99.90
34766;DHT22;20984;43.508;1.504;2023-11-18T06:33:43;6.20;99.90
34766;DHT22;20984;43.508;1.504;2023-11-18T06:38:52;6.20;99.90
34766;DHT22;20984;43.508;1.504;2023-11-18T06:41:19;6.20;99.90
34766;DHT22;20984;43.508;1.504;2023-11-18T06:43:48;6.20;99.90
34766;DHT22;20984;43.508;1.504;2023-11-18T06:46:20;6.20;99.90
34766;DHT22;20984;43.508;1.504;2023-11-18T06:48:50;6.20;99.90
34766;DHT22;20984;43.508;1.504;2023-11-18T06:51:23;6.10;99.90
34766;DHT22;20984;43.508;1.504;2023-11-18T06:53:58;6.10;99.90
34766;DHT22;20984;43.508;1.504;2023-11-18T06:56:27;6.10;99.90
34766;DHT22;20984;43.508;1.504;2023-11-18T06:58:54;6.10;99.90
34766;DHT22;20984;43.508;1.504;2023-11-18T07:01:20;6.10;99.90
34766;DHT22;20984;43.508;1.504;2023-11-18T07:03:47;6.20;99.90
34766;DHT22;20984;43.508;1.504;2023-11-18T07:06:19;6.20;99.90
34766;DHT22;20984;43.508;1.504;2023-11-18T07:08:49;6.20;99.90
34766;DHT22;20984;43.508;1.504;2023-11-18T07:11:15;6.20;99.90
34766;DHT22;20984;43.508;1.504;2023-11-18T07:13:42;6.20;99.90
34766;DHT22;20984;43.508;1.504;2023-11-18T07:16:08;6.20;99.90
34766;DHT22;20984;43.508;1.504;2023-11-18T07:18:35;6.30;99.90
34766;DHT22;20984;43.508;1.504;2023-11-18T07:21:01;6.30;99.90
34766;DHT22;20984;43.508;1.504;2023-11-18T07:23:28;6.30;99.90
34766;DHT22;20984;43.508;1.504;2023-11-18T07:25:54;6.30;99.90
34766;DHT22;20984;43.508;1.504;2023-11-18T07:28:21;6.40;99.90
34766;DHT22;20984;43.508;1.504;2023-11-18T07:30:47;6.50;99.90
34766;DHT22;20984;43.508;1.504;2023-11-18T07:33:17;6.50;99.90
34766;DHT22;20984;43.508;1.504;2023-11-18T07:35:47;6.60;99.90
34766;DHT22;20984;43.508;1.504;2023-11-18T07:38:13;6.60;99.90
34766;DHT22;20984;43.508;1.504;2023-11-18T07:40:39;6.70;99.90
34766;DHT22;20984;43.508;1.504;2023-11-18T07:43:14;6.70;99.90
34766;DHT22;20984;43.508;1.504;2023-11-18T07:45:41;6.80;99.90
34766;DHT22;20984;43.508;1.504;2023-11-18T07:48:09;6.90;99.90
34766;DHT22;20984;43.508;1.504;2023-11-18T07:50:36;6.90;99.90
34766;DHT22;20984;43.508;1.504;2023-11-18T07:53:02;7.00;99.90
34766;DHT22;20984;43.508;1.504;2023-11-18T07:55:29;7.10;99.90
34766;DHT22;20984;43.508;1.504;2023-11-18T07:57:55;7.20;99.90
34766;DHT22;20984;43.508;1.504;2023-11-18T08:00:21;7.30;99.90
34766;DHT22;20984;43.508;1.504;2023-11-18T08:02:46;7.40;99.90
34766;DHT22;20984;43.508;1.504;2023-11-18T08:05:12;7.50;99.90
34766;DHT22;20984;43.508;1.504;2023-11-18T08:07:43;7.50;99.90
34766;DHT22;20984;43.508;1.504;2023-11-18T08:10:10;7.60;99.90
34766;DHT22;20984;43.508;1.504;2023-11-18T08:12:39;7.70;99.90
34766;DHT22;20984;43.508;1.504;2023-11-18T08:15:06;7.80;99.90
34766;DHT22;20984;43.508;1.504;2023-11-18T08:17:32;8.00;99.90
34766;DHT22;20984;43.508;1.504;2023-11-18T08:19:59;8.10;99.90
34766;DHT22;20984;43.508;1.504;2023-11-18T08:22:25;8.30;99.90
34766;DHT22;20984;43.508;1.504;2023-11-18T08:24:50;8.40;99.90
34766;DHT22;20984;43.508;1.504;2023-11-18T08:27:16;8.50;99.90
34766;DHT22;20984;43.508;1.504;2023-11-18T08:29:42;8.60;99.90
34766;DHT22;20984;43.508;1.504;2023-11-18T08:32:08;8.70;99.90
34766;DHT22;20984;43.508;1.504;2023-11-18T08:34:36;8.70;99.90
34766;DHT22;20984;43.508;1.504;2023-11-18T08:37:06;8.80;99.90
34766;DHT22;20984;43.508;1.504;2023-11-18T08:39:32;8.80;99.90
34766;DHT22;20984;43.508;1.504;2023-11-18T08:41:58;8.90;99.90
34766;DHT22;20984;43.508;1.504;2023-11-18T08:44:23;9.00;99.90
34766;DHT22;20984;43.508;1.504;2023-11-18T08:46:52;9.00;99.90
34766;DHT22;20984;43.508;1.504;2023-11-18T08:49:18;9.10;99.90
34766;DHT22;20984;43.508;1.504;2023-11-18T08:51:49;9.20;99.90
34766;DHT22;20984;43.508;1.504;2023-11-18T08:54:21;9.30;99.90
34766;DHT22;20984;43.508;1.504;2023-11-18T08:56:51;9.40;99.90
34766;DHT22;20984;43.508;1.504;2023-11-18T08:59:20;9.50;99.90
34766;DHT22;20984;43.508;1.504;2023-11-18T09:01:53;9.60;99.90
34766;DHT22;20984;43.508;1.504;2023-11-18T09:04:27;9.60;99.90
34766;DHT22;20984;43.508;1.504;2023-11-18T09:06:53;9.70;99.90
34766;DHT22;20984;43.508;1.504;2023-11-18T09:09:25;9.70;99.90
34766;DHT22;20984;43.508;1.504;2023-11-18T09:11:57;9.70;99.90
34766;DHT22;20984;43.508;1.504;2023-11-18T09:14:26;9.90;99.90
34766;DHT22;20984;43.508;1.504;2023-11-18T09:16:52;10.00;99.90
34766;DHT22;20984;43.508;1.504;2023-11-18T09:19:20;10.00;99.90
34766;DHT22;20984;43.508;1.504;2023-11-18T09:21:47;10.10;99.90
34766;DHT22;20984;43.508;1.504;2023-11-18T09:24:12;10.20;99.90
34766;DHT22;20984;43.508;1.504;2023-11-18T09:26:39;10.30;99.90
34766;DHT22;20984;43.508;1.504;2023-11-18T09:29:06;10.40;99.90
34766;DHT22;20984;43.508;1.504;2023-11-18T09:31:35;10.50;99.90
34766;DHT22;20984;43.508;1.504;2023-11-18T09:34:02;10.50;99.90
34766;DHT22;20984;43.508;1.504;2023-11-18T09:36:32;10.50;99.90
34766;DHT22;20984;43.508;1.504;2023-11-18T09:38:59;10.60;99.90
34766;DHT22;20984;43.508;1.504;2023-11-18T09:41:25;10.70;99.90
34766;DHT22;20984;43.508;1.504;2023-11-18T09:43:52;10.80;99.90
34766;DHT22;20984;43.508;1.504;2023-11-18T09:46:23;10.90;99.90
34766;DHT22;20984;43.508;1.504;2023-11-18T09:48:51;10.90;99.90
34766;DHT22;20984;43.508;1.504;2023-11-18T09:51:27;11.10;99.90
34766;DHT22;20984;43.508;1.504;2023-11-18T09:54:09;11.10;99.90
34766;DHT22;20984;43.508;1.504;2023-11-18T09:56:52;11.20;99.90
34766;DHT22;20984;43.508;1.504;2023-11-18T10:01:57;11.40;99.90
34766;DHT22;20984;43.508;1.504;2023-11-18T10:04:24;11.40;99.90
34766;DHT22;20984;43.508;1.504;2023-11-18T10:06:56;11.60;99.90
34766;DHT22;20984;43.508;1.504;2023-11-18T10:09:24;11.60;99.90
34766;DHT22;20984;43.508;1.504;2023-11-18T10:12:07;11.70;99.90
34766;DHT22;20984;43.508;1.504;2023-11-18T10:14:36;11.80;99.90
34766;DHT22;20984;43.508;1.504;2023-11-18T10:17:06;11.90;99.90
34766;DHT22;20984;43.508;1.504;2023-11-18T10:19:57;12.00;99.90
34766;DHT22;20984;43.508;1.504;2023-11-18T10:22:29;12.00;99.90
34766;DHT22;20984;43.508;1.504;2023-11-18T10:24:55;12.10;99.90
34766;DHT22;20984;43.508;1.504;2023-11-18T10:27:24;12.20;99.90
34766;DHT22;20984;43.508;1.504;2023-11-18T10:29:57;12.20;99.90
34766;DHT22;20984;43.508;1.504;2023-11-18T10:32:23;12.40;99.90
34766;DHT22;20984;43.508;1.504;2023-11-18T10:34:55;12.70;99.90
34766;DHT22;20984;43.508;1.504;2023-11-18T10:37:21;12.80;99.90
34766;DHT22;20984;43.508;1.504;2023-11-18T10:39:49;12.90;99.90
34766;DHT22;20984;43.508;1.504;2023-11-18T10:42:20;12.90;99.90
34766;DHT22;20984;43.508;1.504;2023-11-18T10:44:58;12.90;99.90
34766;DHT22;20984;43.508;1.504;2023-11-18T10:47:25;13.00;99.90
34766;DHT22;20984;43.508;1.504;2023-11-18T10:49:55;13.00;99.90
34766;DHT22;20984;43.508;1.504;2023-11-18T10:52:25;13.10;99.90
34766;DHT22;20984;43.508;1.504;2023-11-18T10:55:01;13.10;99.90
34766;DHT22;20984;43.508;1.504;2023-11-18T10:57:32;13.30;99.90
34766;DHT22;20984;43.508;1.504;2023-11-18T11:00:05;13.40;99.90
34766;DHT22;20984;43.508;1.504;2023-11-18T11:02:40;13.50;99.90
34766;DHT22;20984;43.508;1.504;2023-11-18T11:05:09;13.60;99.90
34766;DHT22;20984;43.508;1.504;2023-11-18T11:07:42;13.70;99.90
34766;DHT22;20984;43.508;1.504;2023-11-18T11:10:09;13.80;99.90
34766;DHT22;20984;43.508;1.504;2023-11-18T11:12:49;13.80;99.90
34766;DHT22;20984;43.508;1.504;2023-11-18T11:15:29;13.90;99.90
34766;DHT22;20984;43.508;1.504;2023-11-18T11:18:02;13.90;99.90
34766;DHT22;20984;43.508;1.504;2023-11-18T11:20:47;14.00;99.90
34766;DHT22;20984;43.508;1.504;2023-11-18T11:28:43;14.10;99.90
34766;DHT22;20984;43.508;1.504;2023-11-18T11:31:40;14.20;99.90
34766;DHT22;20984;43.508;1.504;2023-11-18T11:34:13;14.30;99.90
34766;DHT22;20984;43.508;1.504;2023-11-18T11:36:46;14.40;99.90
34766;DHT22;20984;43.508;1.504;2023-11-18T11:39:15;14.60;99.90
34766;DHT22;20984;43.508;1.504;2023-11-18T11:41:45;14.60;99.90
34766;DHT22;20984;43.508;1.504;2023-11-18T11:44:14;14.60;99.90
34766;DHT22;20984;43.508;1.504;2023-11-18T11:46:40;14.60;99.90
34766;DHT22;20984;43.508;1.504;2023-11-18T11:49:09;14.80;99.90
34766;DHT22;20984;43.508;1.504;2023-11-18T11:52:11;14.80;99.90
34766;DHT22;20984;43.508;1.504;2023-11-18T11:54:48;14.90;99.90
34766;DHT22;20984;43.508;1.504;2023-11-18T11:57:22;15.00;99.90
34766;DHT22;20984;43.508;1.504;2023-11-18T12:02:19;15.00;99.90
34766;DHT22;20984;43.508;1.504;2023-11-18T12:04:50;15.00;99.90
34766;DHT22;20984;43.508;1.504;2023-11-18T12:07:24;15.10;99.90
34766;DHT22;20984;43.508;1.504;2023-11-18T12:09:56;15.10;99.90
34766;DHT22;20984;43.508;1.504;2023-11-18T12:12:24;15.20;99.90
34766;DHT22;20984;43.508;1.504;2023-11-18T12:14:55;15.30;99.90
34766;DHT22;20984;43.508;1.504;2023-11-18T12:20:40;15.40;99.90
34766;DHT22;20984;43.508;1.504;2023-11-18T12:23:08;15.50;99.90
34766;DHT22;20984;43.508;1.504;2023-11-18T12:25:46;15.50;99.90
34766;DHT22;20984;43.508;1.504;2023-11-18T12:28:31;15.70;99.90
34766;DHT22;20984;43.508;1.504;2023-11-18T12:31:01;15.80;99.90
34766;DHT22;20984;43.508;1.504;2023-11-18T12:39:27;15.90;99.90
34766;DHT22;20984;43.508;1.504;2023-11-18T12:42:06;16.00;99.90
34766;DHT22;20984;43.508;1.504;2023-11-18T12:47:42;16.20;99.90
34766;DHT22;20984;43.508;1.504;2023-11-18T12:50:10;16.30;99.90
34766;DHT22;20984;43.508;1.504;2023-11-18T12:52:44;16.40;99.90
34766;DHT22;20984;43.508;1.504;2023-11-18T12:55:12;16.40;99.90
34766;DHT22;20984;43.508;1.504;2023-11-18T12:57:46;16.50;99.90
34766;DHT22;20984;43.508;1.504;2023-11-18T13:00:13;16.50;99.90
34766;DHT22;20984;43.508;1.504;2023-11-18T13:02:42;16.50;99.90
34766;DHT22;20984;43.508;1.504;2023-11-18T13:05:08;16.50;99.90
34766;DHT22;20984;43.508;1.504;2023-11-18T13:07:38;16.60;99.90
34766;DHT22;20984;43.508;1.504;2023-11-18T13:10:05;16.60;99.90
34766;DHT22;20984;43.508;1.504;2023-11-18T13:12:31;16.70;99.90
34766;DHT22;20984;43.508;1.504;2023-11-18T13:14:57;16.70;99.90
34766;DHT22;20984;43.508;1.504;2023-11-18T13:17:22;16.70;99.90
34766;DHT22;20984;43.508;1.504;2023-11-18T13:19:48;16.80;99.90
34766;DHT22;20984;43.508;1.504;2023-11-18T13:22:17;16.80;99.90
34766;DHT22;20984;43.508;1.504;2023-11-18T13:24:45;16.80;99.90
34766;DHT22;20984;43.508;1.504;2023-11-18T13:27:16;16.80;99.90
34766;DHT22;20984;43.508;1.504;2023-11-18T13:29:45;16.80;99.90
34766;DHT22;20984;43.508;1.504;2023-11-18T13:32:12;16.80;99.90
34766;DHT22;20984;43.508;1.504;2023-11-18T13:34:39;16.70;99.90
34766;DHT22;20984;43.508;1.504;2023-11-18T13:37:08;16.80;99.90
34766;DHT22;20984;43.508;1.504;2023-11-18T13:39:36;16.80;99.90
34766;DHT22;20984;43.508;1.504;2023-11-18T13:42:26;16.80;99.90
34766;DHT22;20984;43.508;1.504;2023-11-18T13:44:58;16.90;99.90
34766;DHT22;20984;43.508;1.504;2023-11-18T13:47:26;16.90;99.90
34766;DHT22;20984;43.508;1.504;2023-11-18T13:49:57;17.00;99.90
34766;DHT22;20984;43.508;1.504;2023-11-18T13:52:24;16.90;99.90
34766;DHT22;20984;43.508;1.504;2023-11-18T13:54:51;16.90;99.90
34766;DHT22;20984;43.508;1.504;2023-11-18T13:57:23;16.90;99.90
34766;DHT22;20984;43.508;1.504;2023-11-18T13:59:50;16.80;99.90
34766;DHT22;20984;43.508;1.504;2023-11-18T14:02:15;16.80;99.90
34766;DHT22;20984;43.508;1.504;2023-11-18T14:04:42;16.80;99.90
34766;DHT22;20984;43.508;1.504;2023-11-18T14:07:10;16.70;99.90
34766;DHT22;20984;43.508;1.504;2023-11-18T14:09:43;16.70;99.90
34766;DHT22;20984;43.508;1.504;2023-11-18T14:12:11;16.60;99.90
34766;DHT22;20984;43.508;1.504;2023-11-18T14:14:37;16.40;99.90
34766;DHT22;20984;43.508;1.504;2023-11-18T14:17:03;16.40;99.90
34766;DHT22;20984;43.508;1.504;2023-11-18T14:19:31;16.50;99.90
34766;DHT22;20984;43.508;1.504;2023-11-18T14:21:57;16.50;99.90
34766;DHT22;20984;43.508;1.504;2023-11-18T14:24:23;16.40;99.90
34766;DHT22;20984;43.508;1.504;2023-11-18T14:26:53;16.30;99.90
34766;DHT22;20984;43.508;1.504;2023-11-18T14:29:19;16.30;99.90
34766;DHT22;20984;43.508;1.504;2023-11-18T14:31:45;16.30;99.90
34766;DHT22;20984;43.508;1.504;2023-11-18T14:34:11;16.30;99.90
34766;DHT22;20984;43.508;1.504;2023-11-18T14:36:37;16.30;99.90
34766;DHT22;20984;43.508;1.504;2023-11-18T14:39:03;16.20;99.90
34766;DHT22;20984;43.508;1.504;2023-11-18T14:41:30;16.20;99.90
34766;DHT22;20984;43.508;1.504;2023-11-18T14:43:57;16.10;99.90
34766;DHT22;20984;43.508;1.504;2023-11-18T14:46:27;16.10;99.90
34766;DHT22;20984;43.508;1.504;2023-11-18T14:48:53;15.90;99.90
34766;DHT22;20984;43.508;1.504;2023-11-18T14:51:18;15.90;99.90
34766;DHT22;20984;43.508;1.504;2023-11-18T14:53:44;15.80;99.90
34766;DHT22;20984;43.508;1.504;2023-11-18T14:56:10;15.60;99.90
34766;DHT22;20984;43.508;1.504;2023-11-18T14:58:36;15.60;99.90
34766;DHT22;20984;43.508;1.504;2023-11-18T15:01:02;15.40;99.90
34766;DHT22;20984;43.508;1.504;2023-11-18T15:03:28;15.30;99.90
34766;DHT22;20984;43.508;1.504;2023-11-18T15:05:54;15.20;99.90
34766;DHT22;20984;43.508;1.504;2023-11-18T15:08:20;15.00;99.90
34766;DHT22;20984;43.508;1.504;2023-11-18T15:10:46;14.90;99.90
34766;DHT22;20984;43.508;1.504;2023-11-18T15:13:12;14.80;99.90
34766;DHT22;20984;43.508;1.504;2023-11-18T15:15:44;14.80;99.90
34766;DHT22;20984;43.508;1.504;2023-11-18T15:18:13;14.80;99.90
34766;DHT22;20984;43.508;1.504;2023-11-18T15:20:43;14.70;99.90
34766;DHT22;20984;43.508;1.504;2023-11-18T15:23:10;14.70;99.90
34766;DHT22;20984;43.508;1.504;2023-11-18T15:25:36;14.70;99.90
34766;DHT22;20984;43.508;1.504;2023-11-18T15:28:02;14.60;99.90
34766;DHT22;20984;43.508;1.504;2023-11-18T15:30:29;14.60;99.90
34766;DHT22;20984;43.508;1.504;2023-11-18T15:32:55;14.60;99.90
34766;DHT22;20984;43.508;1.504;2023-11-18T15:35:22;14.60;99.90
34766;DHT22;20984;43.508;1.504;2023-11-18T15:37:48;14.60;99.90
34766;DHT22;20984;43.508;1.504;2023-11-18T15:40:15;14.50;99.90
34766;DHT22;20984;43.508;1.504;2023-11-18T15:42:45;14.50;99.90
34766;DHT22;20984;43.508;1.504;2023-11-18T15:45:17;14.40;99.90
34766;DHT22;20984;43.508;1.504;2023-11-18T15:47:43;14.40;99.90
34766;DHT22;20984;43.508;1.504;2023-11-18T15:50:10;14.30;99.90
34766;DHT22;20984;43.508;1.504;2023-11-18T15:52:45;14.30;99.90
34766;DHT22;20984;43.508;1.504;2023-11-18T15:55:11;14.20;99.90
34766;DHT22;20984;43.508;1.504;2023-11-18T15:57:45;14.10;99.90
34766;DHT22;20984;43.508;1.504;2023-11-18T16:00:22;14.10;99.90
34766;DHT22;20984;43.508;1.504;2023-11-18T16:02:51;14.00;99.90
34766;DHT22;20984;43.508;1.504;2023-11-18T16:05:18;14.00;99.90
34766;DHT22;20984;43.508;1.504;2023-11-18T16:07:45;13.90;99.90
34766;DHT22;20984;43.508;1.504;2023-11-18T16:10:15;13.80;99.90
34766;DHT22;20984;43.508;1.504;2023-11-18T16:12:46;13.80;99.90